createdAt,value
2022-08-09T00:01:52.886Z,3.08
2022-08-09T00:05:03.683Z,3.42
2022-08-09T00:08:32.641Z,3.03
2022-08-09T00:12:03.236Z,3.72
2022-08-09T00:14:58.473Z,3.15
2022-08-09T00:18:11.372Z,3.03
2022-08-09T00:21:14.682Z,2.45
2022-08-09T00:24:19.849Z,2.87
2022-08-09T00:27:22.218Z,3.20
2022-08-09T00:30:26.723Z,2.97
2022-08-09T00:33:32.794Z,2.97
2022-08-09T00:36:52.037Z,2.75
2022-08-09T00:40:12.595Z,3.25
2022-08-09T00:44:10.531Z,2.83
2022-08-09T00:46:56.358Z,2.97
2022-08-09T00:50:01.475Z,2.97
2022-08-09T00:53:10.175Z,2.80
2022-08-09T00:56:15.216Z,3.07
2022-08-09T00:59:40.401Z,3.40
2022-08-09T01:02:47.245Z,2.90
2022-08-09T01:06:20.497Z,3.35
2022-08-09T01:12:47.176Z,3.22
2022-08-09T01:15:54.700Z,2.90
2022-08-09T01:19:02.651Z,4.05
2022-08-09T01:22:55.230Z,2.85
2022-08-09T01:26:19.009Z,2.87
2022-08-09T01:29:55.494Z,2.87
2022-08-09T01:33:00.344Z,3.72
2022-08-09T01:36:09.042Z,2.87
2022-08-09T01:39:11.618Z,3.12
2022-08-09T01:42:16.186Z,3.00
2022-08-09T01:45:19.349Z,2.75
2022-08-09T01:48:29.802Z,3.12
2022-08-09T01:51:34.108Z,2.83
2022-08-09T01:54:41.357Z,3.08
2022-08-09T01:57:46.002Z,2.75
2022-08-09T02:00:50.577Z,3.12
2022-08-09T02:03:53.798Z,2.90
2022-08-09T02:07:17.973Z,3.17
2022-08-09T02:10:29.716Z,2.80
2022-08-09T02:13:37.540Z,3.55
2022-08-09T02:16:59.755Z,2.90
2022-08-09T02:20:07.024Z,2.92
2022-08-09T02:23:13.844Z,3.35
2022-08-09T02:26:25.219Z,3.60
2022-08-09T02:29:32.759Z,2.97
2022-08-09T02:32:38.745Z,2.92
2022-08-09T02:36:01.943Z,2.70
2022-08-09T02:39:14.471Z,2.80
2022-08-09T02:42:34.186Z,2.87
2022-08-09T02:45:42.746Z,3.33
2022-08-09T02:48:47.472Z,2.80
2022-08-09T02:51:56.599Z,2.62
2022-08-09T02:55:03.186Z,2.95
2022-08-09T02:58:35.894Z,2.87
2022-08-09T03:02:05.745Z,3.25
2022-08-09T03:05:04.449Z,3.15
2022-08-09T03:08:09.540Z,3.50
2022-08-09T03:11:15.292Z,3.78
2022-08-09T03:14:38.513Z,3.10
2022-08-09T03:17:44.013Z,3.50
2022-08-09T03:20:46.486Z,3.28
2022-08-09T03:24:04.490Z,3.55
2022-08-09T03:27:09.465Z,3.17
2022-08-09T03:30:33.144Z,3.75
2022-08-09T03:33:54.718Z,4.28
2022-08-09T03:36:59.567Z,3.97
2022-08-09T03:40:02.378Z,4.05
2022-08-09T03:43:07.256Z,3.45
2022-08-09T03:46:20.516Z,2.90
2022-08-09T03:49:32.811Z,3.40
2022-08-09T03:52:39.221Z,4.20
2022-08-09T03:55:42.389Z,5.82
2022-08-09T03:58:44.908Z,5.40
2022-08-09T04:01:50.116Z,3.85
2022-08-09T04:04:53.675Z,3.47
2022-08-09T04:07:56.773Z,3.67
2022-08-09T04:11:01.312Z,3.40
2022-08-09T04:14:53.185Z,3.10
2022-08-09T04:17:26.339Z,3.72
2022-08-09T04:20:32.681Z,3.42
2022-08-09T04:23:35.086Z,3.28
2022-08-09T04:26:38.364Z,3.17
2022-08-09T04:29:40.657Z,3.25
2022-08-09T04:32:52.546Z,2.80
2022-08-09T04:35:56.469Z,3.25
2022-08-09T04:39:00.855Z,2.95
2022-08-09T04:42:03.374Z,2.80
2022-08-09T04:45:06.283Z,3.03
2022-08-09T04:48:10.519Z,3.10
2022-08-09T04:51:12.981Z,3.10
2022-08-09T04:54:20.088Z,2.60
2022-08-09T04:57:24.383Z,3.40
2022-08-09T05:00:31.954Z,2.67
2022-08-09T05:03:43.266Z,2.55
2022-08-09T05:06:46.242Z,2.87
2022-08-09T05:09:52.859Z,2.53
2022-08-09T05:12:55.069Z,3.33
2022-08-09T05:15:57.274Z,2.80
2022-08-09T05:19:00.511Z,2.65
2022-08-09T05:22:05.104Z,2.62
2022-08-09T05:25:28.324Z,2.72
2022-08-09T05:28:34.878Z,3.00
2022-08-09T05:31:46.614Z,3.00
2022-08-09T05:34:52.845Z,2.60
2022-08-09T05:37:57.143Z,2.50
2022-08-09T05:41:01.055Z,3.00
2022-08-09T05:44:03.562Z,2.33
2022-08-09T05:47:07.670Z,2.83
2022-08-09T05:50:26.882Z,2.30
2022-08-09T05:53:37.239Z,2.60
2022-08-09T05:56:56.710Z,2.65
2022-08-09T05:59:59.050Z,2.90
2022-08-09T06:03:03.616Z,2.35
2022-08-09T06:06:06.494Z,2.75
2022-08-09T06:09:09.974Z,2.80
2022-08-09T06:12:31.406Z,2.62
2022-08-09T06:15:33.850Z,2.35
2022-08-09T06:18:36.534Z,2.45
2022-08-09T06:21:39.669Z,2.70
2022-08-09T06:24:52.756Z,2.75
2022-08-09T06:27:55.374Z,2.22
2022-08-09T06:30:57.604Z,2.60
2022-08-09T06:33:59.880Z,2.30
2022-08-09T06:37:02.107Z,2.45
2022-08-09T06:40:21.985Z,2.17
2022-08-09T06:43:26.556Z,2.58
2022-08-09T06:46:39.578Z,1.98
2022-08-09T06:50:11.613Z,2.70
2022-08-09T06:53:05.883Z,2.20
2022-08-09T06:56:09.126Z,2.62
2022-08-09T07:00:50.247Z,2.28
2022-08-09T07:02:34.256Z,2.40
2022-08-09T07:06:02.240Z,2.70
2022-08-09T07:09:01.585Z,2.30
2022-08-09T07:12:04.220Z,2.45
2022-08-09T07:15:53.825Z,2.75
2022-08-09T07:18:29.525Z,2.67
2022-08-09T07:21:36.575Z,2.03
2022-08-09T07:24:40.775Z,2.28
2022-08-09T07:27:53.559Z,2.20
2022-08-09T07:30:57.945Z,2.53
2022-08-09T07:34:00.136Z,1.75
2022-08-09T07:37:02.606Z,2.08
2022-08-09T07:40:05.584Z,2.22
2022-08-09T07:43:16.610Z,2.28
2022-08-09T07:46:19.694Z,2.40
2022-08-09T07:49:21.981Z,1.95
2022-08-09T07:52:24.239Z,2.80
2022-08-09T07:55:28.647Z,2.00
2022-08-09T07:58:31.057Z,1.95
2022-08-09T08:01:34.588Z,2.08
2022-08-09T08:04:37.338Z,2.08
2022-08-09T08:08:43.083Z,2.00
2022-08-09T08:11:03.459Z,1.75
2022-08-09T08:14:25.779Z,2.58
2022-08-09T08:17:52.423Z,2.10
2022-08-09T08:20:51.207Z,2.62
2022-08-09T08:23:55.959Z,1.83
2022-08-09T08:26:58.588Z,2.15
2022-08-09T08:30:03.711Z,1.90
2022-08-09T08:33:06.805Z,2.35
2022-08-09T08:36:14.274Z,1.77
2022-08-09T08:39:31.702Z,2.10
2022-08-09T08:42:43.361Z,2.30
2022-08-09T08:46:03.750Z,1.40
2022-08-09T08:49:12.858Z,2.00
2022-08-09T08:55:52.612Z,2.33
2022-08-09T08:58:55.094Z,1.58
2022-08-09T09:01:59.554Z,1.62
2022-08-09T09:05:02.942Z,1.90
2022-08-09T09:08:31.067Z,1.60
2022-08-09T09:11:38.470Z,2.03
2022-08-09T09:14:42.569Z,2.08
2022-08-09T09:17:49.098Z,2.22
2022-08-09T09:20:55.196Z,2.00
2022-08-09T09:24:04.758Z,1.70
2022-08-09T09:28:04.619Z,2.00
2022-08-09T09:30:57.613Z,2.05
2022-08-09T09:34:14.203Z,2.08
2022-08-09T09:37:31.802Z,2.25
2022-08-09T09:40:42.269Z,1.70
2022-08-09T09:44:12.989Z,1.90
2022-08-09T09:47:16.652Z,2.03
2022-08-09T09:50:49.727Z,2.53
2022-08-09T09:54:19.095Z,1.77
2022-08-09T09:58:02.195Z,1.73
2022-08-09T10:00:58.701Z,2.50
2022-08-09T10:04:08.709Z,2.80
2022-08-09T10:07:23.937Z,2.10
2022-08-09T10:10:31.616Z,2.30
2022-08-09T10:13:43.593Z,2.20
2022-08-09T10:16:56.563Z,2.28
2022-08-09T10:20:32.493Z,1.90
2022-08-09T10:23:38.294Z,2.00
2022-08-09T10:26:42.475Z,2.35
2022-08-09T10:30:16.513Z,2.30
2022-08-09T10:33:29.592Z,2.20
2022-08-09T10:36:34.115Z,2.20
2022-08-09T10:39:40.856Z,1.90
2022-08-09T10:42:53.137Z,1.90
2022-08-09T10:46:00.066Z,2.17
2022-08-09T10:49:17.445Z,1.80
2022-08-09T10:52:37.410Z,1.85
2022-08-09T10:55:58.217Z,2.08
2022-08-09T10:59:23.346Z,1.80
2022-08-09T11:06:25.377Z,1.77
2022-08-09T11:09:41.191Z,2.08
2022-08-09T11:13:49.370Z,2.27
2022-08-09T11:16:39.362Z,1.80
2022-08-09T11:20:11.184Z,1.80
2022-08-09T11:23:23.962Z,2.10
2022-08-09T11:26:40.020Z,1.90
2022-08-09T11:30:02.304Z,2.12
2022-08-09T11:33:26.037Z,2.00
2022-08-09T11:36:42.344Z,1.60
2022-08-09T11:40:01.399Z,2.00
2022-08-09T11:43:05.384Z,1.98
2022-08-09T11:46:08.972Z,2.00
2022-08-09T11:49:16.992Z,2.25
2022-08-09T11:53:16.695Z,1.80
2022-08-09T11:56:14.288Z,2.33
2022-08-09T11:59:30.119Z,2.00
2022-08-09T12:02:53.726Z,2.12
2022-08-09T12:05:58.530Z,1.98
2022-08-09T12:09:02.037Z,1.75
2022-08-09T12:12:12.880Z,1.50
2022-08-09T12:15:48.906Z,1.70
2022-08-09T12:18:53.878Z,2.00
2022-08-09T12:22:00.915Z,2.00
2022-08-09T12:25:31.858Z,1.60
2022-08-09T12:29:00.307Z,1.92
2022-08-09T12:32:10.970Z,1.75
2022-08-09T12:35:19.336Z,2.20
2022-08-09T12:38:29.710Z,2.35
2022-08-09T12:41:40.553Z,1.70
2022-08-09T12:44:46.624Z,1.73
2022-08-09T12:47:54.846Z,1.70
2022-08-09T12:50:58.184Z,1.70
2022-08-09T12:54:03.042Z,1.62
2022-08-09T12:57:05.622Z,2.17
2022-08-09T13:00:18.391Z,2.08
2022-08-09T13:03:58.533Z,2.12
2022-08-09T13:06:54.100Z,1.85
2022-08-09T13:10:03.153Z,2.00
2022-08-09T13:13:10.278Z,1.60
2022-08-09T13:16:15.826Z,1.73
2022-08-09T13:20:08.665Z,1.73
2022-08-09T13:23:16.417Z,1.87
2022-08-09T13:26:36.928Z,1.67
2022-08-09T13:30:02.988Z,1.77
2022-08-09T13:33:01.928Z,1.83
2022-08-09T13:36:39.203Z,1.70
2022-08-09T13:41:46.489Z,2.50
2022-08-09T13:42:50.273Z,1.80
2022-08-09T13:46:43.633Z,1.80
2022-08-09T13:49:18.116Z,1.85
2022-08-09T13:52:21.104Z,2.08
2022-08-09T13:55:23.276Z,2.35
2022-08-09T13:58:25.641Z,1.60
2022-08-09T14:01:56.658Z,1.70
2022-08-09T14:04:59.688Z,1.80
2022-08-09T14:08:04.592Z,1.95
2022-08-09T14:11:15.973Z,1.85
2022-08-09T14:14:25.727Z,1.90
2022-08-09T14:17:32.739Z,1.65
2022-08-09T14:20:52.793Z,2.37
2022-08-09T14:23:57.001Z,1.70
2022-08-09T14:27:01.245Z,1.85
2022-08-09T14:30:36.325Z,1.70
2022-08-09T14:33:27.043Z,1.75
2022-08-09T14:36:39.889Z,1.60
2022-08-09T14:39:48.349Z,1.83
2022-08-09T14:42:51.113Z,1.62
2022-08-09T14:46:55.436Z,1.83
2022-08-09T14:49:16.169Z,2.08
2022-08-09T14:52:18.540Z,1.70
2022-08-09T14:55:21.346Z,1.70
2022-08-09T14:58:23.693Z,1.55
2022-08-09T15:01:28.461Z,1.87
2022-08-09T15:04:33.740Z,1.65
2022-08-09T15:07:36.102Z,1.60
2022-08-09T15:10:38.980Z,2.17
2022-08-09T15:13:56.163Z,1.50
2022-08-09T15:17:07.598Z,2.28
2022-08-09T15:20:15.253Z,1.70
2022-08-09T15:24:02.513Z,1.67
2022-08-09T15:26:46.021Z,1.90
2022-08-09T15:30:57.554Z,1.60
2022-08-09T15:33:23.229Z,1.77
2022-08-09T15:36:30.664Z,1.87
2022-08-09T15:39:43.804Z,1.85
2022-08-09T15:42:55.112Z,1.55
2022-08-09T15:46:28.222Z,1.62
2022-08-09T15:49:23.771Z,1.60
2022-08-09T15:52:26.292Z,1.67
2022-08-09T15:55:29.061Z,1.70
2022-08-09T15:58:37.440Z,1.80
2022-08-09T16:01:41.635Z,1.70
2022-08-09T16:04:45.171Z,1.60
2022-08-09T16:07:51.916Z,1.60
2022-08-09T16:10:55.840Z,1.62
2022-08-09T16:14:02.864Z,1.80
2022-08-09T16:17:08.914Z,1.87
2022-08-09T16:20:12.838Z,2.17
2022-08-09T16:23:15.179Z,1.67
2022-08-09T16:26:34.940Z,1.25
2022-08-09T16:29:50.037Z,1.70
2022-08-09T16:33:09.432Z,1.70
2022-08-09T16:36:15.953Z,1.30
2022-08-09T16:39:20.859Z,1.50
2022-08-09T16:42:23.873Z,1.60
2022-08-09T16:45:27.428Z,1.95
2022-08-09T16:48:50.544Z,1.73
2022-08-09T16:51:55.203Z,2.03
2022-08-09T16:54:57.718Z,1.50
2022-08-09T16:58:09.834Z,1.80
2022-08-09T17:01:13.627Z,1.62
2022-08-09T17:04:26.114Z,1.52
2022-08-09T17:08:45.078Z,1.67
2022-08-09T17:10:53.289Z,1.65
2022-08-09T17:14:00.956Z,1.70
2022-08-09T17:17:13.009Z,1.70
2022-08-09T17:20:32.573Z,1.70
2022-08-09T17:24:28.400Z,1.40
2022-08-09T17:27:02.015Z,2.10
2022-08-09T17:30:12.626Z,1.50
2022-08-09T17:33:22.284Z,1.62
2022-08-09T17:36:25.322Z,1.77
2022-08-09T17:39:52.822Z,1.70
2022-08-09T17:42:55.739Z,1.50
2022-08-09T17:46:06.859Z,1.40
2022-08-09T17:49:09.978Z,1.60
2022-08-09T17:52:22.133Z,1.55
2022-08-09T17:55:24.850Z,1.70
2022-08-09T17:58:47.534Z,1.70
2022-08-09T18:02:07.786Z,1.17
2022-08-09T18:05:12.919Z,1.73
2022-08-09T18:08:16.140Z,1.60
2022-08-09T18:11:23.747Z,1.33
2022-08-09T18:14:26.732Z,1.58
2022-08-09T18:18:02.521Z,1.45
2022-08-09T18:20:56.143Z,1.15
2022-08-09T18:24:10.445Z,1.60
2022-08-09T18:27:59.898Z,1.30
2022-08-09T18:30:48.657Z,1.10
2022-08-09T18:33:53.268Z,1.17
2022-08-09T18:36:56.150Z,1.23
2022-08-09T18:39:58.520Z,1.12
2022-08-09T18:43:00.807Z,1.10
2022-08-09T18:46:49.929Z,1.23
2022-08-09T18:49:27.593Z,1.00
2022-08-09T18:52:35.519Z,0.80
2022-08-09T18:55:56.123Z,1.02
2022-08-09T18:59:01.015Z,1.00
2022-08-09T19:02:04.535Z,1.00
2022-08-09T19:05:20.452Z,1.00
2022-08-09T19:08:31.505Z,0.90
2022-08-09T19:11:35.194Z,0.90
2022-08-09T19:14:40.356Z,1.02
2022-08-09T19:17:54.425Z,0.85
2022-08-09T19:20:58.904Z,0.95
2022-08-09T19:24:37.524Z,0.90
2022-08-09T19:27:28.502Z,1.02
2022-08-09T19:30:32.464Z,0.90
2022-08-09T19:33:35.414Z,1.00
2022-08-09T19:36:37.658Z,0.70
2022-08-09T19:40:04.666Z,0.80
2022-08-09T19:43:10.258Z,1.23
2022-08-09T19:46:34.006Z,0.98
2022-08-09T19:50:07.709Z,0.93
2022-08-09T19:53:04.191Z,0.80
2022-08-09T19:56:07.175Z,1.08
2022-08-09T20:04:23.694Z,0.80
2022-08-09T20:06:04.057Z,1.00
2022-08-09T20:09:06.388Z,0.80
2022-08-09T20:12:09.388Z,0.80
2022-08-09T20:16:38.342Z,0.80
2022-08-09T20:19:42.323Z,0.80
2022-08-09T20:22:14.784Z,0.90
2022-08-09T20:25:22.623Z,0.70
2022-08-09T20:28:34.659Z,0.73
2022-08-09T20:31:51.447Z,1.40
2022-08-09T20:35:10.065Z,0.73
2022-08-09T20:38:22.293Z,0.85
2022-08-09T20:41:37.746Z,1.20
2022-08-09T20:44:40.204Z,0.90
2022-08-09T20:47:53.111Z,0.90
2022-08-09T20:50:58.298Z,0.80
2022-08-09T20:54:00.695Z,1.17
2022-08-09T20:57:06.417Z,0.77
2022-08-09T21:00:20.376Z,0.80
2022-08-09T21:04:07.625Z,1.00
2022-08-09T21:06:55.943Z,0.80
2022-08-09T21:09:58.714Z,1.25
2022-08-09T21:13:01.299Z,0.85
2022-08-09T21:16:04.336Z,0.82
2022-08-09T21:20:17.937Z,1.17
2022-08-09T21:22:46.906Z,1.10
2022-08-09T21:25:59.813Z,0.60
2022-08-09T21:29:02.365Z,1.42
2022-08-09T21:32:18.804Z,1.15
2022-08-09T21:35:21.949Z,0.80
2022-08-09T21:38:31.286Z,0.80
2022-08-09T21:42:03.746Z,1.15
2022-08-09T21:44:57.114Z,0.77
2022-08-09T21:47:59.730Z,0.80
2022-08-09T21:51:01.955Z,0.82
2022-08-09T21:54:04.920Z,0.95
2022-08-09T21:57:07.083Z,0.60
2022-08-09T22:00:33.175Z,1.00
2022-08-09T22:03:36.773Z,0.90
2022-08-09T22:06:59.104Z,0.68
2022-08-09T22:10:08.668Z,0.80
2022-08-09T22:13:11.571Z,0.80
2022-08-09T22:16:13.881Z,0.80
2022-08-09T22:19:57.762Z,1.00
2022-08-09T22:22:39.974Z,0.80
2022-08-09T22:26:08.075Z,0.77
2022-08-09T22:29:07.432Z,0.90
2022-08-09T22:32:29.437Z,0.70
2022-08-09T22:38:54.597Z,1.42
2022-08-09T22:41:56.915Z,0.93
2022-08-09T22:48:10.862Z,0.82
2022-08-09T22:48:36.242Z,0.77
2022-08-09T22:51:49.436Z,0.90
2022-08-09T22:54:52.163Z,1.00
2022-08-09T22:57:59.630Z,1.00
2022-08-09T23:01:03.815Z,0.90
2022-08-09T23:04:07.535Z,1.00
2022-08-09T23:08:23.128Z,1.02
2022-08-09T23:10:50.517Z,0.98
2022-08-09T23:13:53.713Z,1.17
2022-08-09T23:16:55.994Z,1.10
2022-08-09T23:20:06.276Z,0.90
2022-08-09T23:23:09.841Z,1.25
2022-08-09T23:26:12.023Z,0.98
2022-08-09T23:29:14.256Z,0.95
2022-08-09T23:32:16.558Z,1.00
2022-08-09T23:35:18.780Z,1.10
2022-08-09T23:38:21.353Z,1.10
2022-08-09T23:41:27.746Z,1.08
2022-08-09T23:44:31.714Z,1.00
2022-08-09T23:47:33.912Z,1.20
2022-08-09T23:50:36.397Z,1.20
2022-08-09T23:53:38.766Z,1.20
2022-08-09T23:56:54.626Z,1.20
